Time;durP1;ratioP1;P1;durP2;ratioP2;P2;SDS_P1;SDS_P2;PMS_P1;PMS_P2;Temp;Humidity;BMP_temperature;BMP_pressure;BME280_temperature;BME280_humidity;BME280_pressure;Samples;Min_cycle;Max_cycle;Signal;HPM_P1;HPM_P2
2022/11/11 00:01:02;;;;;;;;;;;;;;;10.43;100.00;102498.50;5041288;28;20694;-75
2022/11/11 00:03:28;;;;;;;;;;;;;;;10.42;100.00;102493.19;5040961;28;19976;-75
2022/11/11 00:05:53;;;;;;;;;;;;;;;10.42;100.00;102493.19;5043056;28;20106;-75
2022/11/11 00:08:19;;;;;;;;;;;;;;;10.40;100.00;102495.84;5025453;28;20575;-75
2022/11/11 00:10:45;;;;;;;;;;;;;;;10.40;100.00;102497.66;5031770;28;19936;-75
2022/11/11 00:13:10;;;;;;;;;;;;;;;10.38;100.00;102492.38;5043251;28;19938;-75
2022/11/11 00:15:37;;;;;;;;;;;;;;;10.38;100.00;102496.78;5057324;28;19993;-75
2022/11/11 00:26:14;;;;;;;;;;;;;;;10.29;100.00;102492.50;5042487;28;19940;-75
2022/11/11 00:28:40;;;;;;;;;;;;;;;10.28;100.00;102489.00;5042281;28;20388;-75
2022/11/11 00:31:10;;;;;;;;;;;;;;;10.28;100.00;102488.13;5022266;28;20411;-75
2022/11/11 00:33:35;;;;;;;;;;;;;;;10.27;100.00;102497.84;5027369;28;19925;-75
2022/11/11 00:36:00;;;;;;;;;;;;;;;10.27;100.00;102494.31;5040851;28;20360;-75
2022/11/11 00:38:44;;;;;;;;;;;;;;;10.25;100.00;102485.53;5025313;28;19973;-75
2022/11/11 00:41:10;;;;;;;;;;;;;;;10.25;100.00;102488.19;5040906;28;20411;-75
2022/11/11 00:43:36;;;;;;;;;;;;;;;10.24;100.00;102478.50;5028024;28;19929;-75
2022/11/11 00:51:29;;;;;;;;;;;;;;;10.17;100.00;102483.91;5041812;28;19956;-75
2022/11/11 00:53:55;;;;;;;;;;;;;;;10.17;100.00;102488.31;5024797;28;19981;-76
2022/11/11 00:56:20;;;;;;;;;;;;;;;10.17;100.00;102477.72;5042849;28;19979;-76
2022/11/11 00:58:46;;;;;;;;;;;;;;;10.17;100.00;102491.84;5026852;28;19975;-76
2022/11/11 01:01:11;;;;;;;;;;;;;;;10.19;100.00;102481.25;5043042;28;20330;-76
2022/11/11 01:03:37;;;;;;;;;;;;;;;10.21;100.00;102491.78;5041603;28;20414;-75
2022/11/11 01:06:02;;;;;;;;;;;;;;;10.21;100.00;102479.44;5042366;28;19929;-75
2022/11/11 01:08:29;;;;;;;;;;;;;;;10.23;100.00;102476.78;5027355;28;19928;-75
2022/11/11 01:10:54;;;;;;;;;;;;;;;10.24;100.00;102476.72;5041830;28;19982;-76
2022/11/11 01:13:21;;;;;;;;;;;;;;;10.25;100.00;102481.09;5025558;28;20394;-75
2022/11/11 01:15:47;;;;;;;;;;;;;;;10.26;100.00;102471.41;5041157;28;19935;-75
2022/11/11 01:18:14;;;;;;;;;;;;;;;10.26;100.00;102451.13;5010546;28;19939;-75
2022/11/11 01:20:40;;;;;;;;;;;;;;;10.27;100.00;102455.50;5024243;28;19930;-76
2022/11/11 01:23:06;;;;;;;;;;;;;;;10.27;100.00;102454.63;5040166;28;19928;-76
2022/11/11 01:25:32;;;;;;;;;;;;;;;10.27;100.00;102455.50;5042306;28;20528;-76
2022/11/11 01:27:58;;;;;;;;;;;;;;;10.28;100.00;102464.31;5042041;28;19946;-75
2022/11/11 01:30:23;;;;;;;;;;;;;;;10.29;100.00;102459.00;5042781;28;19924;-76
2022/11/11 01:32:49;;;;;;;;;;;;;;;10.28;100.00;102453.72;5025111;28;20413;-76
2022/11/11 01:35:14;;;;;;;;;;;;;;;10.27;100.00;102452.84;5042306;28;19924;-76
2022/11/11 01:37:39;;;;;;;;;;;;;;;10.27;100.00;102470.50;5030449;28;20192;-76
2022/11/11 01:40:05;;;;;;;;;;;;;;;10.27;100.00;102478.44;5045929;28;19968;-76
2022/11/11 01:42:30;;;;;;;;;;;;;;;10.27;100.00;102478.44;5044778;28;19924;-75
2022/11/11 01:44:56;;;;;;;;;;;;;;;10.27;100.00;102484.63;5060193;28;19950;-76
2022/11/11 01:47:21;;;;;;;;;;;;;;;10.27;100.00;102484.63;5044955;28;19936;-76
2022/11/11 01:49:57;;;;;;;;;;;;;;;10.26;100.00;102484.63;5046497;28;19944;-75
2022/11/11 01:52:33;;;;;;;;;;;;;;;10.26;100.00;102497.88;5029542;28;19925;-76
2022/11/11 01:55:04;;;;;;;;;;;;;;;10.25;100.00;102506.72;5047101;28;19928;-76
2022/11/11 01:57:36;;;;;;;;;;;;;;;10.25;100.00;102512.03;5028597;28;19936;-77
2022/11/11 02:00:05;;;;;;;;;;;;;;;10.24;100.00;102515.56;5045651;28;20423;-75
2022/11/11 02:02:41;;;;;;;;;;;;;;;10.23;100.00;102516.47;5027054;28;19948;-75
2022/11/11 02:07:53;;;;;;;;;;;;;;;10.18;100.00;102528.00;5045571;28;19931;-76
2022/11/11 02:10:19;;;;;;;;;;;;;;;10.17;100.00;102534.19;5041684;28;19924;-75
2022/11/11 02:15:28;;;;;;;;;;;;;;;10.12;100.00;102512.22;5045580;28;19937;-76
2022/11/11 02:17:54;;;;;;;;;;;;;;;10.11;100.00;102494.59;5026438;28;20001;-75
2022/11/11 02:20:21;;;;;;;;;;;;;;;10.09;100.00;102512.28;5045609;28;19929;-76
2022/11/11 02:22:56;;;;;;;;;;;;;;;10.07;100.00;102513.22;5026515;28;20280;-76
2022/11/11 02:25:22;;;;;;;;;;;;;;;10.06;100.00;102512.31;5045626;28;19932;-76
2022/11/11 02:27:49;;;;;;;;;;;;;;;10.02;100.00;102513.28;5025953;28;20512;-75
2022/11/11 02:30:15;;;;;;;;;;;;;;;10.02;100.00;102518.59;5030651;28;20595;-76
2022/11/11 02:32:42;;;;;;;;;;;;;;;10.00;100.00;102513.31;5033013;28;20158;-76
2022/11/11 02:35:15;;;;;;;;;;;;;;;9.99;100.00;102506.28;5046015;28;19929;-75
2022/11/11 02:37:40;;;;;;;;;;;;;;;9.99;100.00;102510.69;5028008;28;19924;-75
2022/11/11 02:40:07;;;;;;;;;;;;;;;9.98;100.00;102512.44;5027599;28;20310;-75
2022/11/11 02:42:33;;;;;;;;;;;;;;;9.97;100.00;102497.47;5044491;28;19936;-75
2022/11/11 02:44:59;;;;;;;;;;;;;;;9.96;100.00;102508.94;5012910;28;19924;-75
2022/11/11 02:47:25;;;;;;;;;;;;;;;9.96;100.00;102505.44;5042433;28;19928;-75
2022/11/11 02:49:50;;;;;;;;;;;;;;;9.95;100.00;102507.22;5044352;28;20265;-76
2022/11/11 02:52:15;;;;;;;;;;;;;;;9.94;100.00;102505.47;5025081;28;19986;-76
2022/11/11 02:54:42;;;;;;;;;;;;;;;9.95;100.00;102511.63;5044684;28;19971;-76
2022/11/11 02:57:08;;;;;;;;;;;;;;;9.94;100.00;102516.06;5027576;28;19933;-76
2022/11/11 02:59:37;;;;;;;;;;;;;;;9.94;100.00;102513.41;5025600;28;20554;-75
2022/11/11 03:02:03;;;;;;;;;;;;;;;9.93;100.00;102501.06;5043128;28;19929;-75
2022/11/11 03:04:29;;;;;;;;;;;;;;;9.94;100.00;102496.66;5028022;28;19956;-75
2022/11/11 03:06:54;;;;;;;;;;;;;;;9.94;100.00;102509.88;5043618;28;20011;-75
2022/11/11 03:09:19;;;;;;;;;;;;;;;9.93;100.00;102514.31;5044581;28;19948;-74
2022/11/11 03:11:45;;;;;;;;;;;;;;;9.92;100.00;102513.41;5043400;28;19928;-77
2022/11/11 03:14:10;;;;;;;;;;;;;;;9.92;100.00;102505.47;5043016;28;20273;-76
2022/11/11 03:19:22;;;;;;;;;;;;;;;9.92;100.00;102521.34;5043195;28;20041;-76
2022/11/11 03:21:47;;;;;;;;;;;;;;;9.92;100.00;102517.84;5041963;28;20272;-76
2022/11/11 03:24:12;;;;;;;;;;;;;;;9.92;100.00;102516.06;5044321;28;20548;-76
2022/11/11 03:26:38;;;;;;;;;;;;;;;9.92;100.00;102507.28;5043494;28;19936;-76
2022/11/11 03:29:04;;;;;;;;;;;;;;;9.91;100.00;102502.84;5043498;28;19924;-76
2022/11/11 03:31:29;;;;;;;;;;;;;;;9.91;100.00;102506.38;5026606;28;19925;-75
2022/11/11 03:33:55;;;;;;;;;;;;;;;9.87;100.00;102488.81;5041781;28;19928;-76
2022/11/11 03:38:14;;;;;;;;;;;;;;;9.86;100.00;102492.34;5027418;28;19924;-76
2022/11/11 03:39:05;;;;;;;;;;;;;;;9.85;100.00;102497.66;5043765;28;19928;-76
2022/11/11 03:41:31;;;;;;;;;;;;;;;9.81;100.00;102488.91;5043655;28;20041;-76
2022/11/11 03:43:56;;;;;;;;;;;;;;;9.80;100.00;102492.44;5043669;28;20039;-76
2022/11/11 03:46:21;;;;;;;;;;;;;;;9.78;100.00;102491.59;5043449;28;19932;-76
2022/11/11 03:48:49;;;;;;;;;;;;;;;9.76;100.00;102499.56;5042040;28;19937;-76
2022/11/11 03:51:15;;;;;;;;;;;;;;;9.75;100.00;102502.25;5043070;28;20434;-76
2022/11/11 03:53:40;;;;;;;;;;;;;;;9.74;100.00;102508.41;5016042;28;19925;-76
2022/11/11 03:56:06;;;;;;;;;;;;;;;9.71;100.00;102503.19;5043453;28;19932;-75
2022/11/11 03:58:31;;;;;;;;;;;;;;;9.71;100.00;102503.19;5043067;28;19936;-75
2022/11/11 04:00:57;;;;;;;;;;;;;;;9.70;100.00;102501.44;5043721;28;19981;-76
2022/11/11 04:11:42;;;;;;;;;;;;;;;9.64;100.00;102497.97;5043018;28;19931;-76
2022/11/11 04:16:55;;;;;;;;;;;;;;;9.63;100.00;102506.81;5039622;28;19963;-76
2022/11/11 04:22:05;;;;;;;;;;;;;;;9.62;100.00;102513.00;5030366;28;19929;-76
2022/11/11 04:27:15;;;;;;;;;;;;;;;9.62;100.00;102523.59;5030655;28;20430;-75
2022/11/11 04:29:41;;;;;;;;;;;;;;;9.61;100.00;102524.50;5042823;28;19928;-76
2022/11/11 04:34:52;;;;;;;;;;;;;;;9.60;100.00;102535.94;5027028;28;19928;-76
2022/11/11 04:37:17;;;;;;;;;;;;;;;9.59;100.00;102528.91;5042513;28;20402;-75
2022/11/11 04:42:28;;;;;;;;;;;;;;;9.59;100.00;102536.84;5043550;28;19924;-76
2022/11/11 04:47:38;;;;;;;;;;;;;;;9.59;100.00;102533.34;5039206;28;19936;-75
2022/11/11 04:50:06;;;;;;;;;;;;;;;9.58;100.00;102527.16;5028963;28;20014;-75
2022/11/11 04:52:31;;;;;;;;;;;;;;;9.57;100.00;102528.06;5042071;28;20363;-74
2022/11/11 04:57:42;;;;;;;;;;;;;;;9.56;100.00;102528.97;5042197;28;19932;-76
2022/11/11 05:00:08;;;;;;;;;;;;;;;9.56;100.00;102522.78;5024259;28;19959;-75
2022/11/11 05:05:18;;;;;;;;;;;;;;;9.56;100.00;102525.44;5041739;28;19975;-75
2022/11/11 05:10:27;;;;;;;;;;;;;;;9.51;100.00;102542.25;5041927;28;20510;-76
2022/11/11 05:21:19;;;;;;;;;;;;;;;9.48;100.00;102530.84;5041346;28;19940;-76
2022/11/11 05:21:21;;;;;;;;;;;;;;;9.43;100.00;102544.09;5041558;28;19928;-75
2022/11/11 05:25:24;;;;;;;;;;;;;;;9.41;100.00;102523.91;5024643;28;19925;-76
2022/11/11 05:26:35;;;;;;;;;;;;;;;9.37;100.00;102533.59;5021981;28;19932;-75
2022/11/11 05:29:01;;;;;;;;;;;;;;;9.35;100.00;102531.00;5041724;28;20315;-75
2022/11/11 05:31:27;;;;;;;;;;;;;;;9.33;100.00;102535.41;5022862;28;19941;-76
2022/11/11 05:33:53;;;;;;;;;;;;;;;9.31;100.00;102531.94;5021460;28;19934;-76
2022/11/11 05:36:18;;;;;;;;;;;;;;;9.30;100.00;102534.59;5042018;28;19947;-75
2022/11/11 05:38:43;;;;;;;;;;;;;;;9.29;100.00;102532.84;5041750;28;21170;-75
2022/11/11 05:41:09;;;;;;;;;;;;;;;9.27;100.00;102538.16;5041719;28;20658;-76
2022/11/11 05:43:34;;;;;;;;;;;;;;;9.27;100.00;102539.94;5041296;28;19960;-76
2022/11/11 05:46:00;;;;;;;;;;;;;;;9.29;100.00;102543.41;5040481;28;20543;-75
2022/11/11 05:48:25;;;;;;;;;;;;;;;9.31;100.00;102542.50;5024087;28;22018;-77
2022/11/11 05:50:50;;;;;;;;;;;;;;;9.33;100.00;102551.28;5039038;28;19929;-75
2022/11/11 05:53:22;;;;;;;;;;;;;;;9.34;100.00;102555.69;5042410;28;19968;-75
2022/11/11 05:55:51;;;;;;;;;;;;;;;9.35;100.00;102552.16;5042106;28;19932;-75
2022/11/11 05:58:17;;;;;;;;;;;;;;;9.36;100.00;102555.66;5011358;28;20349;-75
2022/11/11 06:00:43;;;;;;;;;;;;;;;9.40;100.00;102560.03;5041505;28;19975;-76
2022/11/11 06:03:08;;;;;;;;;;;;;;;9.40;100.00;102553.84;5020153;28;20013;-75
2022/11/11 06:05:34;;;;;;;;;;;;;;;9.42;100.00;102555.56;5024767;28;20272;-75
2022/11/11 06:08:00;;;;;;;;;;;;;;;9.47;100.00;102560.78;5040830;28;19929;-74
2022/11/11 06:10:31;;;;;;;;;;;;;;;9.50;100.00;102571.34;5041944;28;19928;-75
2022/11/11 06:13:04;;;;;;;;;;;;;;;9.53;100.00;102559.84;5042142;28;20300;-76
2022/11/11 06:15:30;;;;;;;;;;;;;;;9.55;100.00;102566.88;5042044;28;19935;-76
2022/11/11 06:17:56;;;;;;;;;;;;;;;9.58;100.00;102563.31;5053856;28;20400;-76
2022/11/11 06:20:21;;;;;;;;;;;;;;;9.59;100.00;102570.34;5031050;28;20020;-76
2022/11/11 06:22:56;;;;;;;;;;;;;;;9.60;100.00;102565.03;5044164;28;19932;-75
2022/11/11 06:28:11;;;;;;;;;;;;;;;9.63;100.00;102565.00;5042087;28;19939;-76
2022/11/11 06:30:37;;;;;;;;;;;;;;;9.63;100.00;102566.75;5030442;28;19929;-75
2022/11/11 06:33:02;;;;;;;;;;;;;;;9.63;100.00;102572.03;5043472;28;19964;-74
2022/11/11 06:35:28;;;;;;;;;;;;;;;9.63;100.00;102572.94;5027884;28;20372;-74
2022/11/11 06:37:53;;;;;;;;;;;;;;;9.63;100.00;102582.63;5045071;28;20204;-75
2022/11/11 06:40:18;;;;;;;;;;;;;;;9.62;100.00;102592.34;5044144;28;20145;-75
2022/11/11 06:42:44;;;;;;;;;;;;;;;9.62;100.00;102589.69;5043850;28;19935;-75
2022/11/11 06:45:09;;;;;;;;;;;;;;;9.62;100.00;102595.00;5045414;28;19931;-75
2022/11/11 06:47:34;;;;;;;;;;;;;;;9.61;100.00;102595.88;5025205;28;20535;-76
2022/11/11 06:50:00;;;;;;;;;;;;;;;9.61;100.00;102595.88;5044092;28;20490;-76
2022/11/11 06:52:25;;;;;;;;;;;;;;;9.61;100.00;102601.19;5044957;28;20074;-75
2022/11/11 06:54:51;;;;;;;;;;;;;;;9.61;100.00;102605.56;5043939;28;20289;-76
2022/11/11 06:57:16;;;;;;;;;;;;;;;9.60;100.00;102599.41;5028100;28;19928;-75
2022/11/11 06:59:41;;;;;;;;;;;;;;;9.60;100.00;102607.34;5044516;28;19982;-76
2022/11/11 07:02:13;;;;;;;;;;;;;;;9.60;100.00;102604.69;5043847;28;19955;-75
2022/11/11 07:04:38;;;;;;;;;;;;;;;9.61;100.00;102617.03;5043333;28;21413;-76
2022/11/11 07:07:03;;;;;;;;;;;;;;;9.61;100.00;102608.22;5043643;28;21856;-76
2022/11/11 07:09:29;;;;;;;;;;;;;;;9.61;100.00;102605.56;5043799;28;19929;-75
2022/11/11 07:11:54;;;;;;;;;;;;;;;9.60;100.00;102609.97;5044025;28;19939;-76
2022/11/11 07:14:20;;;;;;;;;;;;;;;9.62;100.00;102613.50;5030111;28;20353;-76
2022/11/11 07:16:45;;;;;;;;;;;;;;;9.62;100.00;102608.22;5043300;28;20296;-76
2022/11/11 07:19:10;;;;;;;;;;;;;;;9.63;100.00;102625.81;5043599;28;20407;-76
2022/11/11 07:21:36;;;;;;;;;;;;;;;9.64;100.00;102629.31;5043257;28;20398;-77
2022/11/11 07:24:01;;;;;;;;;;;;;;;9.64;100.00;102624.91;5043387;28;20437;-76
2022/11/11 07:26:27;;;;;;;;;;;;;;;9.65;100.00;102644.31;5022621;28;20671;-75
2022/11/11 07:28:52;;;;;;;;;;;;;;;9.64;100.00;102630.22;5043250;28;19929;-75
2022/11/11 07:31:18;;;;;;;;;;;;;;;9.66;100.00;102638.13;5028242;28;20971;-76
2022/11/11 07:33:43;;;;;;;;;;;;;;;9.66;100.00;102640.78;5018463;28;19935;-76
2022/11/11 07:36:08;;;;;;;;;;;;;;;9.68;100.00;102649.56;5027552;28;20514;-76
2022/11/11 07:38:34;;;;;;;;;;;;;;;9.68;100.00;102654.84;5042192;28;19974;-75
2022/11/11 07:40:59;;;;;;;;;;;;;;;9.68;100.00;102648.66;5043753;28;19938;-77
2022/11/11 07:43:25;;;;;;;;;;;;;;;9.69;100.00;102645.16;5042930;28;20295;-75
2022/11/11 07:45:50;;;;;;;;;;;;;;;9.70;100.00;102668.06;5056661;28;19932;-75
2022/11/11 07:48:15;;;;;;;;;;;;;;;9.69;100.00;102663.66;5041217;28;19932;-75
2022/11/11 07:50:41;;;;;;;;;;;;;;;9.69;100.00;102674.25;5030049;28;19933;-75
2022/11/11 07:53:06;;;;;;;;;;;;;;;9.68;100.00;102670.72;5042980;28;20513;-76
2022/11/11 07:55:32;;;;;;;;;;;;;;;9.69;100.00;102687.47;5043037;28;20709;-76
2022/11/11 07:57:57;;;;;;;;;;;;;;;9.69;100.00;102693.63;5042721;28;21616;-76
2022/11/11 08:00:23;;;;;;;;;;;;;;;9.69;100.00;102690.13;5043616;28;19929;-76
2022/11/11 08:02:48;;;;;;;;;;;;;;;9.68;100.00;102705.09;5041513;28;19932;-76
2022/11/11 08:05:14;;;;;;;;;;;;;;;9.68;100.00;102706.84;5011946;28;19939;-76
2022/11/11 08:07:41;;;;;;;;;;;;;;;9.67;100.00;102705.09;5020438;28;19924;-76
2022/11/11 08:10:07;;;;;;;;;;;;;;;9.65;100.00;102710.44;5042583;28;21539;-77
2022/11/11 08:15:17;;;;;;;;;;;;;;;9.63;100.00;102715.75;5026641;28;20793;-77
2022/11/11 08:17:42;;;;;;;;;;;;;;;9.63;100.00;102720.13;5027286;28;20009;-76
2022/11/11 08:20:08;;;;;;;;;;;;;;;9.62;100.00;102724.56;5043626;28;20021;-76
2022/11/11 08:22:40;;;;;;;;;;;;;;;9.62;100.00;102727.22;5023246;28;19933;-76
2022/11/11 08:25:06;;;;;;;;;;;;;;;9.61;100.00;102722.81;5042266;28;19979;-76
2022/11/11 08:27:32;;;;;;;;;;;;;;;9.62;100.00;102727.22;5042360;28;19936;-76
2022/11/11 08:29:57;;;;;;;;;;;;;;;9.61;100.00;102722.81;5040271;28;19932;-76
2022/11/11 08:32:23;;;;;;;;;;;;;;;9.62;100.00;102724.56;5041887;28;20042;-76
2022/11/11 08:34:48;;;;;;;;;;;;;;;9.64;100.00;102727.16;5021873;28;20464;-76
2022/11/11 08:37:13;;;;;;;;;;;;;;;9.64;100.00;102729.81;5023442;28;19925;-75
2022/11/11 08:39:39;;;;;;;;;;;;;;;9.66;100.00;102730.69;5042381;28;20289;-76
2022/11/11 08:42:05;;;;;;;;;;;;;;;9.67;100.00;102735.09;5040050;28;19928;-76
2022/11/11 08:44:30;;;;;;;;;;;;;;;9.67;100.00;102732.44;5025487;28;19924;-76
2022/11/11 08:46:55;;;;;;;;;;;;;;;9.68;100.00;102730.66;5024773;28;20003;-76
2022/11/11 08:49:21;;;;;;;;;;;;;;;9.67;100.00;102732.44;5025237;28;19979;-76
2022/11/11 08:51:46;;;;;;;;;;;;;;;9.68;100.00;102728.91;5042836;28;20464;-76
2022/11/11 08:54:12;;;;;;;;;;;;;;;9.68;100.00;102723.59;5023604;28;19972;-76
2022/11/11 08:56:37;;;;;;;;;;;;;;;9.68;100.00;102734.19;5023312;28;19932;-76
2022/11/11 08:59:03;;;;;;;;;;;;;;;9.68;100.00;102735.94;5056391;28;19931;-76
2022/11/11 09:01:28;;;;;;;;;;;;;;;9.68;100.00;102722.72;5041301;28;20435;-75
2022/11/11 09:03:54;;;;;;;;;;;;;;;9.69;100.00;102735.09;5041725;28;19932;-75
2022/11/11 09:06:19;;;;;;;;;;;;;;;9.69;100.00;102729.78;5042514;28;19983;-76
2022/11/11 09:08:44;;;;;;;;;;;;;;;9.69;100.00;102732.44;5042268;28;19929;-76
2022/11/11 09:11:10;;;;;;;;;;;;;;;9.70;100.00;102740.31;5025758;28;20403;-76
2022/11/11 09:13:35;;;;;;;;;;;;;;;9.71;100.00;102735.94;5025918;28;19932;-76
2022/11/11 09:16:01;;;;;;;;;;;;;;;9.72;100.00;102735.03;5026760;28;19939;-76
2022/11/11 09:18:26;;;;;;;;;;;;;;;9.74;100.00;102738.53;5020343;28;20023;-76
2022/11/11 09:20:52;;;;;;;;;;;;;;;9.73;100.00;102742.06;5022444;28;19940;-76
2022/11/11 09:23:17;;;;;;;;;;;;;;;9.73;100.00;102744.72;5041972;28;19935;-77
2022/11/11 09:25:43;;;;;;;;;;;;;;;9.74;100.00;102738.53;5042537;28;20383;-75
2022/11/11 09:28:08;;;;;;;;;;;;;;;9.73;100.00;102747.34;5042456;28;19928;-76
2022/11/11 09:30:33;;;;;;;;;;;;;;;9.73;100.00;102755.28;5022333;28;19928;-77
2022/11/11 09:33:02;;;;;;;;;;;;;;;9.73;100.00;102756.19;5041407;28;19948;-76
2022/11/11 09:35:28;;;;;;;;;;;;;;;9.74;100.00;102754.41;5038665;28;19928;-76
2022/11/11 09:38:00;;;;;;;;;;;;;;;9.72;100.00;102761.47;5042166;28;19982;-76
2022/11/11 09:40:27;;;;;;;;;;;;;;;9.73;100.00;102764.13;5042129;28;20491;-77
2022/11/11 09:42:52;;;;;;;;;;;;;;;9.75;100.00;102761.47;5027090;28;19968;-76
2022/11/11 09:45:20;;;;;;;;;;;;;;;9.74;100.00;102776.44;5042505;28;20019;-76
2022/11/11 09:47:46;;;;;;;;;;;;;;;9.74;100.00;102784.38;5028144;28;20027;-76
2022/11/11 09:50:12;;;;;;;;;;;;;;;9.75;100.00;102783.47;5021987;28;19928;-75
2022/11/11 09:52:43;;;;;;;;;;;;;;;9.77;100.00;102778.19;5025345;28;20307;-75
2022/11/11 09:55:22;;;;;;;;;;;;;;;9.79;100.00;102784.31;5025261;28;19929;-76
2022/11/11 09:57:57;;;;;;;;;;;;;;;9.79;100.00;102794.91;5025813;28;19932;-75
2022/11/11 10:00:27;;;;;;;;;;;;;;;9.80;100.00;102796.66;5046005;28;19986;-75
2022/11/11 10:02:56;;;;;;;;;;;;;;;9.80;100.00;102795.78;5024253;28;20096;-75
2022/11/11 10:05:32;;;;;;;;;;;;;;;9.78;100.00;102807.28;5045386;28;20387;-75
2022/11/11 10:08:03;;;;;;;;;;;;;;;9.80;100.00;102799.28;5028921;28;19983;-76
2022/11/11 10:10:32;;;;;;;;;;;;;;;9.79;100.00;102797.53;5029876;28;19935;-76
2022/11/11 10:12:58;;;;;;;;;;;;;;;9.80;100.00;102787.84;5028532;28;20169;-77
2022/11/11 10:15:26;;;;;;;;;;;;;;;9.80;100.00;102785.22;5012248;28;21046;-75
2022/11/11 10:17:57;;;;;;;;;;;;;;;9.80;100.00;102801.09;5043301;28;20481;-76
2022/11/11 10:20:24;;;;;;;;;;;;;;;9.83;100.00;102795.75;5044482;28;20410;-75
2022/11/11 10:22:50;;;;;;;;;;;;;;;9.83;100.00;102796.63;5045105;28;20359;-76
2022/11/11 10:25:20;;;;;;;;;;;;;;;9.85;100.00;102791.31;5028018;28;20315;-75
2022/11/11 10:27:46;;;;;;;;;;;;;;;9.85;100.00;102805.41;5043651;28;19982;-76
2022/11/11 10:30:20;;;;;;;;;;;;;;;9.84;100.00;102806.31;5027530;28;19929;-75
2022/11/11 10:32:48;;;;;;;;;;;;;;;9.85;100.00;102797.47;5041445;28;21786;-77
2022/11/11 10:35:17;;;;;;;;;;;;;;;9.86;100.00;102791.28;5028745;28;19932;-75
2022/11/11 10:37:43;;;;;;;;;;;;;;;9.85;100.00;102800.13;5013897;28;19931;-75
2022/11/11 10:40:11;;;;;;;;;;;;;;;9.87;100.00;102808.06;5043479;28;19928;-76
2022/11/11 10:42:37;;;;;;;;;;;;;;;9.88;100.00;102809.81;5043679;28;20484;-76
2022/11/11 10:45:04;;;;;;;;;;;;;;;9.91;100.00;102812.41;5044875;28;19929;-75
2022/11/11 10:47:43;;;;;;;;;;;;;;;9.92;100.00;102812.41;5025222;28;19928;-75
2022/11/11 10:50:16;;;;;;;;;;;;;;;9.92;100.00;102815.03;5029142;28;19924;-75
2022/11/11 10:52:49;;;;;;;;;;;;;;;9.95;100.00;102800.91;5045073;28;21731;-75
2022/11/11 10:55:18;;;;;;;;;;;;;;;9.96;100.00;102801.78;5027235;28;19936;-75
2022/11/11 10:57:45;;;;;;;;;;;;;;;9.98;100.00;102805.28;5032317;28;19924;-75
2022/11/11 11:00:12;;;;;;;;;;;;;;;9.98;100.00;102802.66;5041318;28;20079;-76
2022/11/11 11:02:49;;;;;;;;;;;;;;;9.97;100.00;102808.84;5026285;28;20384;-75
2022/11/11 11:05:23;;;;;;;;;;;;;;;9.95;100.00;102800.91;5042955;28;20295;-75
2022/11/11 11:07:49;;;;;;;;;;;;;;;9.94;100.00;102814.13;5040840;28;19935;-76
2022/11/11 11:10:19;;;;;;;;;;;;;;;9.95;100.00;102806.19;5026669;28;19928;-77
2022/11/11 11:12:45;;;;;;;;;;;;;;;9.94;100.00;102798.25;5043535;28;19928;-75
2022/11/11 11:15:12;;;;;;;;;;;;;;;9.93;100.00;102813.28;5043249;28;19936;-75
2022/11/11 11:17:47;;;;;;;;;;;;;;;9.94;100.00;102800.91;5041872;28;19936;-76
2022/11/11 11:20:14;;;;;;;;;;;;;;;9.94;100.00;102800.91;5024176;28;19929;-75
2022/11/11 11:22:44;;;;;;;;;;;;;;;9.95;100.00;102792.06;5042380;28;19991;-76
2022/11/11 11:25:11;;;;;;;;;;;;;;;9.95;100.00;102800.00;5027328;28;20521;-76
2022/11/11 11:27:36;;;;;;;;;;;;;;;9.94;100.00;102793.88;5043903;28;19933;-75
2022/11/11 11:30:15;;;;;;;;;;;;;;;9.95;100.00;102797.38;5042823;28;20464;-76
2022/11/11 11:32:43;;;;;;;;;;;;;;;9.95;100.00;102800.00;5056963;28;19931;-76
2022/11/11 11:35:09;;;;;;;;;;;;;;;9.95;100.00;102805.31;5043911;28;19951;-76
2022/11/11 11:37:47;;;;;;;;;;;;;;;9.96;100.00;102799.16;5044092;28;20501;-76
2022/11/11 11:40:13;;;;;;;;;;;;;;;9.95;100.00;102794.72;5044207;28;19973;-76
2022/11/11 11:42:39;;;;;;;;;;;;;;;9.95;100.00;102794.72;5044057;28;19940;-75
2022/11/11 11:45:34;;;;;;;;;;;;;;;9.92;100.00;102801.81;5043968;28;19928;-75
2022/11/11 11:48:02;;;;;;;;;;;;;;;9.91;100.00;102799.16;5020335;28;19934;-76
2022/11/11 11:50:30;;;;;;;;;;;;;;;9.91;100.00;102802.72;5043498;28;19975;-77
2022/11/11 11:53:08;;;;;;;;;;;;;;;9.91;100.00;102797.41;5027086;28;19963;-76
2022/11/11 11:55:37;;;;;;;;;;;;;;;9.92;100.00;102806.25;5045273;28;19925;-77
2022/11/11 11:58:21;;;;;;;;;;;;;;;9.91;100.00;102810.66;5029861;28;19928;-76
2022/11/11 12:01:13;;;;;;;;;;;;;;;9.92;100.00;102812.41;5046097;28;20376;-75
2022/11/11 12:03:56;;;;;;;;;;;;;;;9.91;100.00;102801.81;5042599;28;19929;-75
2022/11/11 12:06:41;;;;;;;;;;;;;;;9.92;100.00;102817.69;5045138;28;19931;-75
2022/11/11 12:09:11;;;;;;;;;;;;;;;9.93;100.00;102805.34;5044571;28;19929;-75
2022/11/11 12:11:43;;;;;;;;;;;;;;;9.94;100.00;102815.03;5025846;28;19986;-75
2022/11/11 12:14:35;;;;;;;;;;;;;;;9.95;100.00;102802.66;5029608;28;19931;-75
2022/11/11 12:17:12;;;;;;;;;;;;;;;9.96;100.00;102812.38;5035616;28;19972;-76
2022/11/11 12:20:01;;;;;;;;;;;;;;;9.97;100.00;102814.97;5029525;28;19933;-76
2022/11/11 12:22:40;;;;;;;;;;;;;;;9.97;100.00;102814.97;5046405;28;19964;-76
2022/11/11 12:25:11;;;;;;;;;;;;;;;9.98;100.00;102810.59;5004314;28;20036;-77
2022/11/11 12:27:36;;;;;;;;;;;;;;;9.97;100.00;102808.84;5023353;28;20303;-76
2022/11/11 12:30:03;;;;;;;;;;;;;;;9.98;100.00;102814.09;5008333;28;19925;-76
2022/11/11 12:32:48;;;;;;;;;;;;;;;9.98;100.00;102816.72;5010052;28;19935;-76
2022/11/11 12:35:20;;;;;;;;;;;;;;;10.02;100.00;102812.31;5012040;28;20498;-77
2022/11/11 12:37:58;;;;;;;;;;;;;;;10.02;100.00;102812.31;5008284;28;19925;-75
2022/11/11 12:40:44;;;;;;;;;;;;;;;10.02;100.00;102817.59;5022754;28;19929;-76
2022/11/11 12:43:19;;;;;;;;;;;;;;;10.03;100.00;102819.34;4981166;28;20273;-76
2022/11/11 12:45:53;;;;;;;;;;;;;;;10.04;100.00;102831.69;5026201;28;19934;-75
2022/11/11 12:48:32;;;;;;;;;;;;;;;10.04;100.00;102829.03;5009796;28;19937;-76
2022/11/11 12:51:00;;;;;;;;;;;;;;;10.05;100.00;102825.50;5025010;28;20560;-76
2022/11/11 12:53:44;;;;;;;;;;;;;;;10.06;100.00;102821.94;5007676;28;19925;-76
2022/11/11 12:56:33;;;;;;;;;;;;;;;10.07;100.00;102826.34;5039508;28;19937;-76
2022/11/11 12:59:02;;;;;;;;;;;;;;;10.06;100.00;102837.81;4993000;28;20448;-76
2022/11/11 13:01:45;;;;;;;;;;;;;;;10.07;100.00;102836.06;5007618;28;20288;-75
2022/11/11 13:04:30;;;;;;;;;;;;;;;10.07;100.00;102842.22;5007936;28;19932;-76
2022/11/11 13:07:00;;;;;;;;;;;;;;;10.07;100.00;102836.06;5009961;28;19929;-76
2022/11/11 13:09:52;;;;;;;;;;;;;;;10.06;100.00;102843.13;4994832;28;19930;-76
2022/11/11 13:12:23;;;;;;;;;;;;;;;10.07;100.00;102841.38;4995649;28;20016;-76
2022/11/11 13:15:02;;;;;;;;;;;;;;;10.06;100.00;102851.06;5009174;28;19929;-76
2022/11/11 13:17:28;;;;;;;;;;;;;;;10.05;100.00;102844.91;5011420;28;20335;-75
2022/11/11 13:19:55;;;;;;;;;;;;;;;10.05;100.00;102836.97;5022572;28;20093;-76
2022/11/11 13:22:27;;;;;;;;;;;;;;;10.05;100.00;102846.66;5016501;28;19932;-75
2022/11/11 13:24:52;;;;;;;;;;;;;;;10.05;100.00;102844.91;5028190;28;19929;-75
2022/11/11 13:27:29;;;;;;;;;;;;;;;10.04;100.00;102848.41;5024081;28;19932;-77
2022/11/11 13:30:01;;;;;;;;;;;;;;;10.03;100.00;102856.41;5026031;28;19928;-75
2022/11/11 13:32:28;;;;;;;;;;;;;;;10.03;100.00;102859.03;5027441;28;19983;-76
2022/11/11 13:34:53;;;;;;;;;;;;;;;10.03;100.00;102861.69;5029395;28;20029;-76
2022/11/11 13:37:29;;;;;;;;;;;;;;;10.01;100.00;102863.44;5044229;28;19933;-75
2022/11/11 13:39:58;;;;;;;;;;;;;;;10.02;100.00;102854.66;5043516;28;20711;-76
2022/11/11 13:42:25;;;;;;;;;;;;;;;10.02;100.00;102860.81;5015223;28;19964;-76
2022/11/11 13:44:51;;;;;;;;;;;;;;;10.01;100.00;102853.75;5030507;28;20430;-76